sensor_id;sensor_type;location;lat;lon;timestamp;pressure;altitude;pressure_sealevel;temperature;humidity
42671;BME280;28283;55.426;37.756;2023-05-25T00:00:23;99391.25;;;15.35;83.52
42671;BME280;28283;55.426;37.756;2023-05-25T00:05:24;99335.69;;;15.02;83.61
42671;BME280;28283;55.426;37.756;2023-05-25T00:10:26;99366.38;;;15.38;83.65
42671;BME280;28283;55.426;37.756;2023-05-25T00:15:27;99330.31;;;15.14;84.25
42671;BME280;28283;55.426;37.756;2023-05-25T00:20:28;99380.28;;;15.30;84.82
42671;BME280;28283;55.426;37.756;2023-05-25T00:25:29;99375.03;;;15.16;85.42
42671;BME280;28283;55.426;37.756;2023-05-25T00:30:29;99373.63;;;14.83;85.04
42671;BME280;28283;55.426;37.756;2023-05-25T00:35:30;99377.88;;;14.61;86.83
42671;BME280;28283;55.426;37.756;2023-05-25T00:40:32;99374.69;;;14.64;87.47
42671;BME280;28283;55.426;37.756;2023-05-25T00:45:33;99369.88;;;14.47;89.17
42671;BME280;28283;55.426;37.756;2023-05-25T00:50:38;99369.56;;;14.37;90.65
42671;BME280;28283;55.426;37.756;2023-05-25T00:56:21;99371.66;;;14.35;92.43
42671;BME280;28283;55.426;37.756;2023-05-25T01:01:14;99368.75;;;14.37;93.57
42671;BME280;28283;55.426;37.756;2023-05-25T01:06:15;99361.81;;;14.22;94.24
42671;BME280;28283;55.426;37.756;2023-05-25T01:11:20;99373.03;;;14.26;95.34
42671;BME280;28283;55.426;37.756;2023-05-25T01:16:24;99354.03;;;14.32;96.04
42671;BME280;28283;55.426;37.756;2023-05-25T01:26:45;99341.47;;;14.57;94.79
42671;BME280;28283;55.426;37.756;2023-05-25T01:31:46;99360.50;;;14.68;94.12
42671;BME280;28283;55.426;37.756;2023-05-25T01:36:47;99370.91;;;14.83;93.53
42671;BME280;28283;55.426;37.756;2023-05-25T01:41:48;99344.16;;;14.57;92.33
42671;BME280;28283;55.426;37.756;2023-05-25T01:46:57;99361.16;;;14.64;91.55
42671;BME280;28283;55.426;37.756;2023-05-25T01:52:18;99376.94;;;14.67;91.42
42671;BME280;28283;55.426;37.756;2023-05-25T01:57:23;99373.44;;;14.66;90.97
42671;BME280;28283;55.426;37.756;2023-05-25T02:02:26;99366.22;;;14.60;90.34
42671;BME280;28283;55.426;37.756;2023-05-25T02:07:27;99364.09;;;14.62;90.47
42671;BME280;28283;55.426;37.756;2023-05-25T02:12:28;99372.13;;;14.69;89.11
42671;BME280;28283;55.426;37.756;2023-05-25T02:17:28;99366.56;;;14.64;89.71
42671;BME280;28283;55.426;37.756;2023-05-25T02:22:29;99386.47;;;14.69;89.70
42671;BME280;28283;55.426;37.756;2023-05-25T02:27:30;99346.50;;;14.53;88.73
42671;BME280;28283;55.426;37.756;2023-05-25T02:32:31;99384.44;;;14.83;90.48
42671;BME280;28283;55.426;37.756;2023-05-25T02:37:32;99382.69;;;14.89;91.43
42671;BME280;28283;55.426;37.756;2023-05-25T02:42:33;99390.44;;;15.04;91.35
42671;BME280;28283;55.426;37.756;2023-05-25T02:47:34;99386.84;;;14.92;91.58
42671;BME280;28283;55.426;37.756;2023-05-25T02:52:35;99396.75;;;14.98;91.01
42671;BME280;28283;55.426;37.756;2023-05-25T02:57:35;99403.34;;;15.02;91.39
42671;BME280;28283;55.426;37.756;2023-05-25T03:02:37;99357.88;;;14.92;91.67
42671;BME280;28283;55.426;37.756;2023-05-25T03:07:38;99389.22;;;15.30;90.78
42671;BME280;28283;55.426;37.756;2023-05-25T03:12:39;99383.25;;;15.40;90.19
42671;BME280;28283;55.426;37.756;2023-05-25T03:17:40;99391.38;;;15.52;89.62
42671;BME280;28283;55.426;37.756;2023-05-25T03:22:40;99394.38;;;15.74;89.51
42671;BME280;28283;55.426;37.756;2023-05-25T03:27:42;99378.53;;;15.77;89.02
42671;BME280;28283;55.426;37.756;2023-05-25T03:32:42;99370.97;;;15.79;88.84
42671;BME280;28283;55.426;37.756;2023-05-25T03:37:43;99396.31;;;15.97;88.30
42671;BME280;28283;55.426;37.756;2023-05-25T03:42:44;99355.59;;;15.73;88.75
42671;BME280;28283;55.426;37.756;2023-05-25T03:47:44;99381.25;;;16.01;88.62
42671;BME280;28283;55.426;37.756;2023-05-25T03:52:45;99388.88;;;16.04;87.62
42671;BME280;28283;55.426;37.756;2023-05-25T03:57:46;99384.06;;;16.06;87.75
42671;BME280;28283;55.426;37.756;2023-05-25T04:02:47;99373.31;;;16.23;87.38
42671;BME280;28283;55.426;37.756;2023-05-25T04:07:47;99375.88;;;16.53;87.20
42671;BME280;28283;55.426;37.756;2023-05-25T04:12:48;99378.06;;;16.68;86.50
42671;BME280;28283;55.426;37.756;2023-05-25T04:17:49;99374.72;;;16.90;85.22
42671;BME280;28283;55.426;37.756;2023-05-25T04:22:49;99369.75;;;17.15;84.69
42671;BME280;28283;55.426;37.756;2023-05-25T04:27:50;99302.31;;;16.67;84.54
42671;BME280;28283;55.426;37.756;2023-05-25T04:32:53;99359.84;;;17.21;84.24
42671;BME280;28283;55.426;37.756;2023-05-25T04:37:54;99370.31;;;17.46;83.09
42671;BME280;28283;55.426;37.756;2023-05-25T04:42:56;99356.25;;;17.66;82.70
42671;BME280;28283;55.426;37.756;2023-05-25T04:47:57;99368.88;;;17.89;81.78
42671;BME280;28283;55.426;37.756;2023-05-25T04:53:00;99372.06;;;18.03;81.88
42671;BME280;28283;55.426;37.756;2023-05-25T04:58:01;99365.88;;;18.08;81.61
42671;BME280;28283;55.426;37.756;2023-05-25T05:03:02;99379.06;;;18.16;81.40
42671;BME280;28283;55.426;37.756;2023-05-25T05:08:04;99373.34;;;18.18;81.30
42671;BME280;28283;55.426;37.756;2023-05-25T05:13:05;99379.34;;;18.37;81.59
42671;BME280;28283;55.426;37.756;2023-05-25T05:18:06;99370.84;;;18.33;81.03
42671;BME280;28283;55.426;37.756;2023-05-25T05:23:07;99374.28;;;18.45;80.79
42671;BME280;28283;55.426;37.756;2023-05-25T05:28:08;99375.63;;;18.65;80.88
42671;BME280;28283;55.426;37.756;2023-05-25T05:33:09;99364.53;;;18.49;80.47
42671;BME280;28283;55.426;37.756;2023-05-25T05:38:09;99377.31;;;18.71;80.37
42671;BME280;28283;55.426;37.756;2023-05-25T05:43:11;99365.09;;;18.51;79.95
42671;BME280;28283;55.426;37.756;2023-05-25T05:48:12;99378.59;;;18.63;80.27
42671;BME280;28283;55.426;37.756;2023-05-25T05:53:13;99384.56;;;18.82;80.10
42671;BME280;28283;55.426;37.756;2023-05-25T05:58:13;99384.19;;;18.74;79.85
42671;BME280;28283;55.426;37.756;2023-05-25T06:03:14;99401.75;;;18.83;79.66
42671;BME280;28283;55.426;37.756;2023-05-25T06:08:14;99380.78;;;18.44;81.19
42671;BME280;28283;55.426;37.756;2023-05-25T06:13:15;99415.19;;;18.50;79.92
42671;BME280;28283;55.426;37.756;2023-05-25T06:18:16;99377.13;;;17.95;84.74
42671;BME280;28283;55.426;37.756;2023-05-25T06:23:16;99392.59;;;18.11;81.67
42671;BME280;28283;55.426;37.756;2023-05-25T06:28:18;99393.84;;;17.86;86.19
42671;BME280;28283;55.426;37.756;2023-05-25T06:33:18;99388.84;;;17.83;87.15
42671;BME280;28283;55.426;37.756;2023-05-25T06:38:19;99381.78;;;17.99;84.39
42671;BME280;28283;55.426;37.756;2023-05-25T06:43:20;99362.59;;;17.89;87.60
42671;BME280;28283;55.426;37.756;2023-05-25T06:48:20;99389.75;;;18.23;84.81
42671;BME280;28283;55.426;37.756;2023-05-25T06:53:21;99391.97;;;18.26;87.26
42671;BME280;28283;55.426;37.756;2023-05-25T06:58:21;99401.56;;;18.50;84.17
42671;BME280;28283;55.426;37.756;2023-05-25T07:03:22;99402.78;;;18.38;85.69
42671;BME280;28283;55.426;37.756;2023-05-25T07:08:22;99410.06;;;18.54;84.66
42671;BME280;28283;55.426;37.756;2023-05-25T07:13:23;99407.19;;;18.44;86.64
42671;BME280;28283;55.426;37.756;2023-05-25T07:18:24;99406.81;;;18.57;84.48
42671;BME280;28283;55.426;37.756;2023-05-25T07:23:25;99405.28;;;18.44;86.39
42671;BME280;28283;55.426;37.756;2023-05-25T07:28:26;99401.81;;;18.49;84.68
42671;BME280;28283;55.426;37.756;2023-05-25T07:33:26;99395.97;;;18.18;86.32
42671;BME280;28283;55.426;37.756;2023-05-25T07:38:28;99360.28;;;17.98;87.22
42671;BME280;28283;55.426;37.756;2023-05-25T07:43:29;99386.06;;;18.12;88.23
42671;BME280;28283;55.426;37.756;2023-05-25T07:48:30;99365.31;;;18.06;88.75
42671;BME280;28283;55.426;37.756;2023-05-25T07:53:30;99382.44;;;18.23;89.00
42671;BME280;28283;55.426;37.756;2023-05-25T07:58:31;99379.91;;;18.39;87.26
42671;BME280;28283;55.426;37.756;2023-05-25T08:03:32;99363.88;;;18.20;88.08
42671;BME280;28283;55.426;37.756;2023-05-25T08:08:32;99381.56;;;18.40;86.72
42671;BME280;28283;55.426;37.756;2023-05-25T08:13:33;99366.84;;;18.19;88.53
42671;BME280;28283;55.426;37.756;2023-05-25T08:18:34;99391.34;;;18.41;85.87
42671;BME280;28283;55.426;37.756;2023-05-25T08:23:35;99374.53;;;18.22;90.26
42671;BME280;28283;55.426;37.756;2023-05-25T08:28:41;99370.06;;;18.16;90.25
42671;BME280;28283;55.426;37.756;2023-05-25T08:33:42;99388.31;;;18.37;88.13
42671;BME280;28283;55.426;37.756;2023-05-25T08:38:42;99387.34;;;18.26;89.40
42671;BME280;28283;55.426;37.756;2023-05-25T08:43:43;99388.56;;;18.36;91.16
42671;BME280;28283;55.426;37.756;2023-05-25T08:48:44;99387.50;;;18.59;89.40
42671;BME280;28283;55.426;37.756;2023-05-25T08:53:48;99385.81;;;18.53;90.10
42671;BME280;28283;55.426;37.756;2023-05-25T08:58:57;99386.69;;;18.58;89.79
42671;BME280;28283;55.426;37.756;2023-05-25T09:04:01;99376.56;;;18.54;90.45
42671;BME280;28283;55.426;37.756;2023-05-25T09:09:03;99380.50;;;18.63;89.45
42671;BME280;28283;55.426;37.756;2023-05-25T09:14:06;99367.88;;;18.57;89.88
42671;BME280;28283;55.426;37.756;2023-05-25T09:19:07;99368.66;;;18.52;89.87
42671;BME280;28283;55.426;37.756;2023-05-25T09:24:08;99357.19;;;18.72;86.78
42671;BME280;28283;55.426;37.756;2023-05-25T09:29:12;99357.56;;;18.37;89.03
42671;BME280;28283;55.426;37.756;2023-05-25T09:34:13;99347.44;;;18.32;90.26
42671;BME280;28283;55.426;37.756;2023-05-25T09:39:14;99360.94;;;18.44;88.97
42671;BME280;28283;55.426;37.756;2023-05-25T09:44:16;99342.84;;;18.33;89.21
42671;BME280;28283;55.426;37.756;2023-05-25T09:49:16;99357.63;;;18.64;87.49
42671;BME280;28283;55.426;37.756;2023-05-25T09:54:20;99360.28;;;18.37;89.58
42671;BME280;28283;55.426;37.756;2023-05-25T09:59:25;99351.59;;;18.18;91.17
42671;BME280;28283;55.426;37.756;2023-05-25T10:04:26;99358.13;;;18.39;90.74
42671;BME280;28283;55.426;37.756;2023-05-25T10:09:27;99356.69;;;18.53;90.04
42671;BME280;28283;55.426;37.756;2023-05-25T10:14:29;99351.88;;;18.16;92.82
42671;BME280;28283;55.426;37.756;2023-05-25T10:19:35;99345.00;;;18.13;92.69
42671;BME280;28283;55.426;37.756;2023-05-25T10:25:07;99352.19;;;18.42;90.69
42671;BME280;28283;55.426;37.756;2023-05-25T10:30:10;99328.13;;;18.34;91.81
42671;BME280;28283;55.426;37.756;2023-05-25T10:35:13;99309.78;;;18.46;90.26
42671;BME280;28283;55.426;37.756;2023-05-25T10:40:13;99336.53;;;18.98;89.89
42671;BME280;28283;55.426;37.756;2023-05-25T10:45:14;99331.41;;;18.80;90.15
42671;BME280;28283;55.426;37.756;2023-05-25T10:50:23;99339.19;;;18.93;88.52
42671;BME280;28283;55.426;37.756;2023-05-25T10:55:27;99319.63;;;18.96;88.38
42671;BME280;28283;55.426;37.756;2023-05-25T11:00:31;99304.91;;;19.24;87.53
42671;BME280;28283;55.426;37.756;2023-05-25T11:05:32;99307.56;;;19.84;85.12
42671;BME280;28283;55.426;37.756;2023-05-25T11:16:19;99303.97;;;20.21;83.35
42671;BME280;28283;55.426;37.756;2023-05-25T11:26:29;99299.59;;;19.77;82.79
42671;BME280;28283;55.426;37.756;2023-05-25T11:31:31;99293.81;;;19.69;84.01
42671;BME280;28283;55.426;37.756;2023-05-25T11:36:35;99284.53;;;20.07;83.00
42671;BME280;28283;55.426;37.756;2023-05-25T11:41:36;99241.97;;;20.11;81.31
42671;BME280;28283;55.426;37.756;2023-05-25T11:46:37;99265.94;;;20.62;80.26
42671;BME280;28283;55.426;37.756;2023-05-25T11:51:40;99277.72;;;20.88;78.38
42671;BME280;28283;55.426;37.756;2023-05-25T11:56:41;99262.94;;;20.79;78.04
42671;BME280;28283;55.426;37.756;2023-05-25T12:01:42;99282.88;;;20.79;77.96
42671;BME280;28283;55.426;37.756;2023-05-25T12:06:42;99257.66;;;20.52;78.69
42671;BME280;28283;55.426;37.756;2023-05-25T12:11:43;99267.25;;;20.59;78.51
42671;BME280;28283;55.426;37.756;2023-05-25T12:16:50;99246.72;;;20.41;79.52
42671;BME280;28283;55.426;37.756;2023-05-25T12:21:52;99250.19;;;20.21;80.31
42671;BME280;28283;55.426;37.756;2023-05-25T12:26:52;99255.44;;;20.44;79.37
42671;BME280;28283;55.426;37.756;2023-05-25T12:32:02;99255.31;;;20.08;79.12
42671;BME280;28283;55.426;37.756;2023-05-25T12:37:16;99249.97;;;20.28;77.54
42671;BME280;28283;55.426;37.756;2023-05-25T12:42:19;99245.09;;;20.40;76.88
42671;BME280;28283;55.426;37.756;2023-05-25T12:47:20;99251.72;;;20.65;77.49
42671;BME280;28283;55.426;37.756;2023-05-25T12:52:34;99246.50;;;20.58;77.42
42671;BME280;28283;55.426;37.756;2023-05-25T12:57:35;99250.84;;;20.54;75.70
42671;BME280;28283;55.426;37.756;2023-05-25T13:02:35;99262.41;;;20.82;75.00
42671;BME280;28283;55.426;37.756;2023-05-25T13:07:36;99263.69;;;20.54;73.34
42671;BME280;28283;55.426;37.756;2023-05-25T13:12:37;99260.41;;;20.52;73.63
42671;BME280;28283;55.426;37.756;2023-05-25T13:17:40;99267.50;;;20.58;74.05
42671;BME280;28283;55.426;37.756;2023-05-25T13:22:44;99264.22;;;20.51;73.77
42671;BME280;28283;55.426;37.756;2023-05-25T13:27:50;99263.66;;;20.49;74.16
42671;BME280;28283;55.426;37.756;2023-05-25T13:32:51;99273.25;;;20.51;74.25
42671;BME280;28283;55.426;37.756;2023-05-25T13:37:52;99272.50;;;20.66;74.84
42671;BME280;28283;55.426;37.756;2023-05-25T13:42:55;99264.47;;;20.49;74.32
42671;BME280;28283;55.426;37.756;2023-05-25T13:47:59;99258.78;;;20.56;74.59
42671;BME280;28283;55.426;37.756;2023-05-25T13:52:59;99255.31;;;20.91;74.28
42671;BME280;28283;55.426;37.756;2023-05-25T13:58:03;99251.09;;;20.43;76.25
42671;BME280;28283;55.426;37.756;2023-05-25T14:03:03;99259.25;;;20.32;76.88
42671;BME280;28283;55.426;37.756;2023-05-25T14:08:05;99257.88;;;20.30;76.88
42671;BME280;28283;55.426;37.756;2023-05-25T14:13:07;99248.72;;;19.98;77.89
42671;BME280;28283;55.426;37.756;2023-05-25T14:18:07;99246.06;;;20.09;77.39
42671;BME280;28283;55.426;37.756;2023-05-25T14:23:08;99238.69;;;20.09;77.43
42671;BME280;28283;55.426;37.756;2023-05-25T14:28:09;99242.81;;;20.12;77.14
42671;BME280;28283;55.426;37.756;2023-05-25T14:33:09;99243.38;;;20.19;77.29
42671;BME280;28283;55.426;37.756;2023-05-25T14:38:14;99231.03;;;20.11;76.61
42671;BME280;28283;55.426;37.756;2023-05-25T14:43:15;99224.50;;;20.07;76.09
42671;BME280;28283;55.426;37.756;2023-05-25T14:48:15;99239.00;;;20.18;75.66
42671;BME280;28283;55.426;37.756;2023-05-25T14:53:18;99232.31;;;19.93;77.11
42671;BME280;28283;55.426;37.756;2023-05-25T14:58:18;99215.81;;;19.68;77.64
42671;BME280;28283;55.426;37.756;2023-05-25T15:03:19;99234.16;;;19.77;77.49
42671;BME280;28283;55.426;37.756;2023-05-25T15:08:19;99230.06;;;19.75;77.74
42671;BME280;28283;55.426;37.756;2023-05-25T15:13:20;99218.56;;;19.73;77.97
42671;BME280;28283;55.426;37.756;2023-05-25T15:18:22;99236.88;;;19.77;77.91
42671;BME280;28283;55.426;37.756;2023-05-25T15:23:22;99232.28;;;19.78;76.91
42671;BME280;28283;55.426;37.756;2023-05-25T15:28:23;99203.50;;;19.60;75.87
42671;BME280;28283;55.426;37.756;2023-05-25T15:33:24;99225.09;;;19.72;76.16
42671;BME280;28283;55.426;37.756;2023-05-25T15:38:25;99221.28;;;19.73;75.95
42671;BME280;28283;55.426;37.756;2023-05-25T15:43:25;99228.16;;;19.75;75.91
42671;BME280;28283;55.426;37.756;2023-05-25T15:48:26;99214.75;;;19.69;76.24
42671;BME280;28283;55.426;37.756;2023-05-25T15:53:27;99237.97;;;19.76;76.72
42671;BME280;28283;55.426;37.756;2023-05-25T15:58:29;99227.50;;;19.58;77.64
42671;BME280;28283;55.426;37.756;2023-05-25T16:03:33;99233.47;;;19.55;78.18
42671;BME280;28283;55.426;37.756;2023-05-25T16:08:34;99216.31;;;19.22;78.91
42671;BME280;28283;55.426;37.756;2023-05-25T16:13:34;99240.50;;;19.45;79.46
42671;BME280;28283;55.426;37.756;2023-05-25T16:18:35;99235.94;;;19.56;79.11
42671;BME280;28283;55.426;37.756;2023-05-25T16:23:36;99224.53;;;20.17;77.34
42671;BME280;28283;55.426;37.756;2023-05-25T16:28:37;99238.81;;;20.45;75.74
42671;BME280;28283;55.426;37.756;2023-05-25T16:33:38;99228.09;;;20.23;76.35
42671;BME280;28283;55.426;37.756;2023-05-25T16:38:41;99233.91;;;20.47;76.61
42671;BME280;28283;55.426;37.756;2023-05-25T16:43:41;99241.41;;;20.98;75.05
42671;BME280;28283;55.426;37.756;2023-05-25T16:48:42;99231.00;;;21.36;73.33
42671;BME280;28283;55.426;37.756;2023-05-25T16:53:42;99197.63;;;21.65;71.87
42671;BME280;28283;55.426;37.756;2023-05-25T16:58:51;99204.94;;;21.80;70.88
42671;BME280;28283;55.426;37.756;2023-05-25T17:03:52;99215.88;;;21.80;70.83
42671;BME280;28283;55.426;37.756;2023-05-25T17:08:54;99218.72;;;21.23;72.07
42671;BME280;28283;55.426;37.756;2023-05-25T17:13:55;99222.28;;;20.98;72.16
42671;BME280;28283;55.426;37.756;2023-05-25T17:18:56;99215.78;;;20.20;75.24
42671;BME280;28283;55.426;37.756;2023-05-25T17:23:57;99225.78;;;19.89;76.65
42671;BME280;28283;55.426;37.756;2023-05-25T17:28:58;99211.69;;;19.60;77.27
42671;BME280;28283;55.426;37.756;2023-05-25T17:34:00;99221.34;;;19.35;78.31
42671;BME280;28283;55.426;37.756;2023-05-25T17:39:00;99233.97;;;19.14;79.71
42671;BME280;28283;55.426;37.756;2023-05-25T17:44:01;99243.66;;;19.00;80.93
42671;BME280;28283;55.426;37.756;2023-05-25T17:49:02;99223.41;;;18.63;81.18
42671;BME280;28283;55.426;37.756;2023-05-25T17:54:03;99255.06;;;18.69;81.88
42671;BME280;28283;55.426;37.756;2023-05-25T17:59:04;99228.00;;;18.36;82.52
42671;BME280;28283;55.426;37.756;2023-05-25T18:04:07;99259.66;;;18.42;83.83
42671;BME280;28283;55.426;37.756;2023-05-25T18:09:08;99250.25;;;18.27;83.97
42671;BME280;28283;55.426;37.756;2023-05-25T18:14:08;99237.31;;;18.18;84.54
42671;BME280;28283;55.426;37.756;2023-05-25T18:19:09;99250.56;;;18.09;85.18
42671;BME280;28283;55.426;37.756;2023-05-25T18:24:10;99228.88;;;17.92;85.62
42671;BME280;28283;55.426;37.756;2023-05-25T18:29:11;99247.31;;;17.90;85.67
42671;BME280;28283;55.426;37.756;2023-05-25T18:34:12;99248.81;;;17.81;85.57
42671;BME280;28283;55.426;37.756;2023-05-25T18:39:13;99231.47;;;17.65;86.54
42671;BME280;28283;55.426;37.756;2023-05-25T18:44:14;99214.91;;;17.49;86.48
42671;BME280;28283;55.426;37.756;2023-05-25T18:49:15;99238.41;;;17.55;87.23
42671;BME280;28283;55.426;37.756;2023-05-25T18:54:15;99231.09;;;17.39;87.35
42671;BME280;28283;55.426;37.756;2023-05-25T18:59:16;99247.38;;;17.56;86.10
42671;BME280;28283;55.426;37.756;2023-05-25T19:04:17;99246.78;;;17.37;87.73
42671;BME280;28283;55.426;37.756;2023-05-25T19:09:17;99244.50;;;17.29;88.60
42671;BME280;28283;55.426;37.756;2023-05-25T19:14:18;99258.00;;;17.24;89.03
42671;BME280;28283;55.426;37.756;2023-05-25T19:19:18;99253.81;;;17.33;87.20
42671;BME280;28283;55.426;37.756;2023-05-25T19:24:19;99251.34;;;17.14;89.04
42671;BME280;28283;55.426;37.756;2023-05-25T19:29:20;99250.19;;;17.10;89.12
42671;BME280;28283;55.426;37.756;2023-05-25T19:34:22;99230.69;;;16.96;89.66
42671;BME280;28283;55.426;37.756;2023-05-25T19:39:23;99244.09;;;17.03;89.55
42671;BME280;28283;55.426;37.756;2023-05-25T19:44:29;99237.69;;;16.92;89.62
42671;BME280;28283;55.426;37.756;2023-05-25T19:49:30;99240.13;;;16.94;89.61
42671;BME280;28283;55.426;37.756;2023-05-25T19:54:31;99228.50;;;16.82;89.85
42671;BME280;28283;55.426;37.756;2023-05-25T19:59:32;99241.59;;;16.85;89.78
42671;BME280;28283;55.426;37.756;2023-05-25T20:04:35;99236.41;;;16.83;90.17
42671;BME280;28283;55.426;37.756;2023-05-25T20:09:35;99247.50;;;16.82;89.68
42671;BME280;28283;55.426;37.756;2023-05-25T20:58:18;99222.25;;;16.23;94.14
42671;BME280;28283;55.426;37.756;2023-05-25T21:03:22;99243.84;;;16.18;95.36
42671;BME280;28283;55.426;37.756;2023-05-25T21:08:23;99207.16;;;15.87;96.06
42671;BME280;28283;55.426;37.756;2023-05-25T21:13:23;99228.16;;;15.92;96.77
42671;BME280;28283;55.426;37.756;2023-05-25T21:18:24;99223.19;;;15.89;96.84
42671;BME280;28283;55.426;37.756;2023-05-25T21:23:25;99215.75;;;15.84;97.30
42671;BME280;28283;55.426;37.756;2023-05-25T21:28:27;99206.47;;;15.80;98.27
42671;BME280;28283;55.426;37.756;2023-05-25T21:33:28;99197.41;;;15.74;97.24
42671;BME280;28283;55.426;37.756;2023-05-25T21:38:32;99202.09;;;15.67;97.34
42671;BME280;28283;55.426;37.756;2023-05-25T21:43:33;99204.94;;;15.72;98.21
42671;BME280;28283;55.426;37.756;2023-05-25T21:48:34;99209.06;;;15.75;98.69
42671;BME280;28283;55.426;37.756;2023-05-25T21:53:34;99193.16;;;15.55;99.26
42671;BME280;28283;55.426;37.756;2023-05-25T21:58:35;99203.06;;;15.49;100.00
42671;BME280;28283;55.426;37.756;2023-05-25T22:03:36;99185.63;;;15.45;100.00
42671;BME280;28283;55.426;37.756;2023-05-25T22:08:36;99175.41;;;15.35;99.87
42671;BME280;28283;55.426;37.756;2023-05-25T22:13:37;99153.16;;;14.98;99.43
42671;BME280;28283;55.426;37.756;2023-05-25T22:18:37;99200.13;;;15.15;99.72
42671;BME280;28283;55.426;37.756;2023-05-25T22:23:38;99148.91;;;14.90;100.00
42671;BME280;28283;55.426;37.756;2023-05-25T22:28:38;99194.34;;;15.23;100.00
42671;BME280;28283;55.426;37.756;2023-05-25T22:33:39;99187.78;;;15.07;100.00
42671;BME280;28283;55.426;37.756;2023-05-25T22:38:40;99202.22;;;15.01;99.79
42671;BME280;28283;55.426;37.756;2023-05-25T22:43:40;99198.47;;;15.02;99.51
42671;BME280;28283;55.426;37.756;2023-05-25T22:48:41;99193.88;;;15.03;99.86
42671;BME280;28283;55.426;37.756;2023-05-25T22:53:42;99188.56;;;14.96;100.00
42671;BME280;28283;55.426;37.756;2023-05-25T22:58:43;99195.03;;;15.07;100.00
42671;BME280;28283;55.426;37.756;2023-05-25T23:03:43;99198.81;;;15.06;100.00
42671;BME280;28283;55.426;37.756;2023-05-25T23:08:44;99197.97;;;15.05;100.00
42671;BME280;28283;55.426;37.756;2023-05-25T23:13:45;99194.91;;;15.02;100.00
42671;BME280;28283;55.426;37.756;2023-05-25T23:18:46;99169.84;;;14.95;100.00
42671;BME280;28283;55.426;37.756;2023-05-25T23:23:47;99200.00;;;15.10;100.00
42671;BME280;28283;55.426;37.756;2023-05-25T23:28:48;99182.34;;;15.19;99.42
42671;BME280;28283;55.426;37.756;2023-05-25T23:33:49;99185.41;;;15.11;98.82
42671;BME280;28283;55.426;37.756;2023-05-25T23:38:49;99198.47;;;15.02;99.42
42671;BME280;28283;55.426;37.756;2023-05-25T23:43:50;99213.28;;;15.00;100.00
42671;BME280;28283;55.426;37.756;2023-05-25T23:48:50;99211.53;;;14.94;100.00
42671;BME280;28283;55.426;37.756;2023-05-25T23:53:51;99206.09;;;14.94;100.00
42671;BME280;28283;55.426;37.756;2023-05-25T23:58:51;99206.91;;;14.94;100.00
